Powersville, Georgia
Current Conditions -  °F | °C
As of 9:53 AM on Wednesday 22 Oct 2014 (Local Time) from KMCN Reporting Station
Clear Clear  
Wind Chill: 13°   Ceiling: Unl
Heat Index: 13°   Visibility: 10mi
Dew Point:   Wind: 9mph
Humidity: 72%   Direction: 350°N
Pressure: 30.1"   Gusts: NA
Location:  32.6425°N, 83.775°W
Report Text: KMCN 221353Z 35008KT 10SM CLR 13/08 A3010 RMK AO2 SLP190 T01330083
Loading
Personal Weather Stations






























Interactive Weather Map
Tropical Storm Tracking
New forecast layout! Learn more

10-Day Weather Forecast

Advertisements
Track Severe Weather on mobile